Time;durP1;ratioP1;P1;durP2;ratioP2;P2;SDS_P1;SDS_P2;PMS_P1;PMS_P2;Temp;Humidity;BMP_temperature;BMP_pressure;BME280_temperature;BME280_humidity;BME280_pressure;Samples;Min_cycle;Max_cycle;Signal;HPM_P1;HPM_P2
2022/06/02 00:02:25;;;;;;;3.33;1.83;;;;;;;;;;5054032;28;20181;-71
2022/06/02 00:04:55;;;;;;;2.87;1.67;;;;;;;;;;5048727;28;20224;-71
2022/06/02 00:07:38;;;;;;;2.60;1.70;;;;;;;;;;5064722;28;20598;-71
2022/06/02 00:10:13;;;;;;;3.20;1.87;;;;;;;;;;5057042;28;20212;-71
2022/06/02 00:12:47;;;;;;;1.93;1.60;;;;;;;;;;5054308;28;20223;-71
2022/06/02 00:15:26;;;;;;;2.20;1.80;;;;;;;;;;5067914;28;20209;-71
2022/06/02 00:18:07;;;;;;;2.10;1.80;;;;;;;;;;5053277;28;20196;-71
2022/06/02 00:20:44;;;;;;;2.93;1.80;;;;;;;;;;5052908;28;20276;-71
2022/06/02 00:23:22;;;;;;;3.40;2.00;;;;;;;;;;5054468;28;20284;-71
2022/06/02 00:25:58;;;;;;;3.03;2.30;;;;;;;;;;5052930;28;20250;-71
2022/06/02 00:28:27;;;;;;;2.27;1.70;;;;;;;;;;5060156;28;20207;-71
2022/06/02 00:31:15;;;;;;;2.83;2.10;;;;;;;;;;5055956;28;20205;-71
2022/06/02 00:33:51;;;;;;;2.90;2.50;;;;;;;;;;5050230;28;20221;-71
2022/06/02 00:36:40;;;;;;;4.13;2.50;;;;;;;;;;5054647;28;20695;-71
2022/06/02 00:39:08;;;;;;;3.97;2.50;;;;;;;;;;5056064;28;20294;-71
2022/06/02 00:41:40;;;;;;;5.77;2.47;;;;;;;;;;5051942;28;20238;-71
2022/06/02 00:44:18;;;;;;;4.50;2.40;;;;;;;;;;5052604;28;20706;-71
2022/06/02 00:46:50;;;;;;;4.27;2.20;;;;;;;;;;5057554;28;20297;-71
2022/06/02 00:49:35;;;;;;;5.10;2.30;;;;;;;;;;5052907;28;20182;-71
2022/06/02 00:52:16;;;;;;;3.57;2.33;;;;;;;;;;5063958;28;20271;-71
2022/06/02 00:57:50;;;;;;;3.47;2.70;;;;;;;;;;5056422;28;20210;-71
2022/06/02 01:00:45;;;;;;;5.87;2.90;;;;;;;;;;5055490;28;20228;-71
2022/06/02 01:03:17;;;;;;;3.17;2.30;;;;;;;;;;5052310;28;20590;-71
2022/06/02 01:05:43;;;;;;;3.63;2.37;;;;;;;;;;5054829;28;20176;-71
2022/06/02 01:08:27;;;;;;;2.90;2.53;;;;;;;;;;5052641;28;20557;-71
2022/06/02 01:11:15;;;;;;;3.93;2.40;;;;;;;;;;5058846;28;20281;-71
2022/06/02 01:13:56;;;;;;;3.10;2.73;;;;;;;;;;5053572;28;20216;-71
2022/06/02 01:16:29;;;;;;;3.80;2.50;;;;;;;;;;5056723;28;20185;-71
2022/06/02 01:19:14;;;;;;;4.70;2.97;;;;;;;;;;5063823;28;20229;-71
2022/06/02 01:21:55;;;;;;;3.30;2.87;;;;;;;;;;5058287;28;20181;-71
2022/06/02 01:24:21;;;;;;;3.73;3.20;;;;;;;;;;5057585;28;20247;-71
2022/06/02 01:27:18;;;;;;;3.63;2.80;;;;;;;;;;5063851;28;20189;-71
2022/06/02 01:29:47;;;;;;;2.80;2.60;;;;;;;;;;5065135;28;21148;-71
2022/06/02 01:32:20;;;;;;;3.03;2.60;;;;;;;;;;5060048;28;20274;-71
2022/06/02 01:34:54;;;;;;;3.93;2.63;;;;;;;;;;5067253;28;20204;-71
2022/06/02 01:37:20;;;;;;;3.10;2.80;;;;;;;;;;5057096;28;20196;-71
2022/06/02 01:39:46;;;;;;;3.20;2.30;;;;;;;;;;5057207;28;20182;-71
2022/06/02 01:42:13;;;;;;;3.20;2.80;;;;;;;;;;5055261;28;20244;-71
2022/06/02 01:44:43;;;;;;;4.50;2.60;;;;;;;;;;5057482;28;20324;-72
2022/06/02 01:47:09;;;;;;;3.20;2.40;;;;;;;;;;5042969;28;20205;-71
2022/06/02 01:49:54;;;;;;;3.67;2.40;;;;;;;;;;5054921;28;20553;-71
2022/06/02 01:52:21;;;;;;;2.57;2.30;;;;;;;;;;5054189;28;20197;-71
2022/06/02 01:55:06;;;;;;;2.57;2.37;;;;;;;;;;5057814;28;20281;-72
2022/06/02 01:57:41;;;;;;;2.47;2.20;;;;;;;;;;5057842;28;20847;-71
2022/06/02 02:00:12;;;;;;;2.53;2.33;;;;;;;;;;5054847;28;20174;-71
2022/06/02 02:02:57;;;;;;;3.00;2.30;;;;;;;;;;5054728;28;20182;-71
2022/06/02 02:05:27;;;;;;;2.60;2.40;;;;;;;;;;5054936;28;20776;-71
2022/06/02 02:08:00;;;;;;;3.20;2.30;;;;;;;;;;5065263;28;20791;-71
2022/06/02 02:10:26;;;;;;;2.60;2.20;;;;;;;;;;5054305;28;20589;-71
2022/06/02 02:13:05;;;;;;;3.13;2.60;;;;;;;;;;5056883;28;20852;-71
2022/06/02 02:15:37;;;;;;;3.97;2.40;;;;;;;;;;5055481;28;20268;-71
2022/06/02 02:18:22;;;;;;;3.27;2.30;;;;;;;;;;5055335;28;20272;-71
2022/06/02 02:21:05;;;;;;;3.03;2.73;;;;;;;;;;5052411;28;20675;-71
2022/06/02 02:24:07;;;;;;;3.20;2.90;;;;;;;;;;5052300;28;20686;-71
2022/06/02 02:26:40;;;;;;;3.87;3.00;;;;;;;;;;5024645;28;20205;-71
2022/06/02 02:29:25;;;;;;;4.57;3.30;;;;;;;;;;5046552;28;20205;-71
2022/06/02 02:32:00;;;;;;;3.50;3.20;;;;;;;;;;5056519;28;20197;-71
2022/06/02 02:34:46;;;;;;;3.93;3.40;;;;;;;;;;5063971;28;20283;-71
2022/06/02 02:37:15;;;;;;;3.63;3.33;;;;;;;;;;5064092;28;20196;-71
2022/06/02 02:40:02;;;;;;;4.50;3.00;;;;;;;;;;5066623;28;20201;-71
2022/06/02 02:42:38;;;;;;;3.43;3.13;;;;;;;;;;5061379;28;20177;-71
2022/06/02 02:45:08;;;;;;;6.50;3.50;;;;;;;;;;5059183;28;20580;-71
2022/06/02 02:47:51;;;;;;;3.73;3.40;;;;;;;;;;5059059;28;20538;-71
2022/06/02 02:50:33;;;;;;;4.77;3.70;;;;;;;;;;5061913;28;20181;-71
2022/06/02 02:53:08;;;;;;;4.00;3.60;;;;;;;;;;5057915;28;20239;-71
2022/06/02 02:55:38;;;;;;;3.80;3.50;;;;;;;;;;5059894;28;20279;-71
2022/06/02 02:58:20;;;;;;;4.20;3.80;;;;;;;;;;5065793;28;20186;-71
2022/06/02 03:00:59;;;;;;;3.77;3.47;;;;;;;;;;5058821;28;20181;-71
2022/06/02 03:03:30;;;;;;;4.20;3.60;;;;;;;;;;5059599;28;20209;-71
2022/06/02 03:06:07;;;;;;;4.43;4.03;;;;;;;;;;5065234;28;20180;-71
2022/06/02 03:08:51;;;;;;;4.07;3.10;;;;;;;;;;5063029;28;20204;-71
2022/06/02 03:11:35;;;;;;;4.93;3.57;;;;;;;;;;5060746;28;20185;-71
2022/06/02 03:14:10;;;;;;;4.77;4.00;;;;;;;;;;5064145;28;20832;-71
2022/06/02 03:16:38;;;;;;;5.17;4.10;;;;;;;;;;5062709;28;20211;-71
2022/06/02 03:19:16;;;;;;;3.90;3.50;;;;;;;;;;5063681;28;20246;-71
2022/06/02 03:21:51;;;;;;;4.60;4.20;;;;;;;;;;5059731;28;20602;-71
2022/06/02 03:24:17;;;;;;;4.37;3.97;;;;;;;;;;5061614;28;20201;-71
2022/06/02 03:26:43;;;;;;;3.97;3.53;;;;;;;;;;5057679;28;20292;-71
2022/06/02 03:29:37;;;;;;;4.00;3.60;;;21.40;40.80;;;;;;5058233;28;20186;-71
2022/06/02 03:32:11;;;;;;;5.23;3.60;;;12.70;98.30;;;;;;5044577;28;20734;-71
2022/06/02 03:34:46;;;;;;;4.20;3.80;;;12.40;96.90;;;;;;5064283;28;20605;-71
2022/06/02 03:37:23;;;;;;;5.70;4.00;;;12.50;96.40;;;;;;5062325;28;20651;-71
2022/06/02 03:40:22;;;;;;;4.00;3.60;;;12.50;97.80;;;;;;5054059;28;20274;-71
2022/06/02 03:42:51;;;;;;;4.60;4.20;;;12.50;98.00;;;;;;5045231;28;20212;-71
2022/06/02 03:45:41;;;;;;;6.03;3.60;;;12.50;98.70;;;;;;5056635;28;20186;-71
2022/06/02 03:48:28;;;;;;;4.80;3.90;;;12.50;99.80;;;;;;5036895;28;20186;-71
2022/06/02 03:51:12;;;;;;;5.70;3.57;;;12.50;99.80;;;;;;5053115;28;20736;-71
2022/06/02 03:54:01;;;;;;;3.83;3.40;;;12.60;98.60;;;;;;5052516;28;20209;-71
2022/06/02 03:56:48;;;;;;;3.93;3.63;;;12.60;99.90;;;;;;5054281;28;20360;-71
2022/06/02 03:59:21;;;;;;;4.10;3.40;;;12.60;99.90;;;;;;5054753;28;20559;-71
2022/06/02 04:02:09;;;;;;;4.87;3.37;;;12.70;97.70;;;;;;5055875;28;20225;-71
2022/06/02 04:05:00;;;;;;;4.80;3.70;;;12.60;99.30;;;;;;5039809;28;20292;-71
2022/06/02 04:07:39;;;;;;;4.03;3.40;;;12.50;99.90;;;;;;5052360;28;20189;-71
2022/06/02 04:10:24;;;;;;;4.77;3.40;;;12.60;99.50;;;;;;5054105;28;20186;-71
2022/06/02 04:15:54;;;;;;;4.80;3.97;;;;;;;;;;5044401;28;20258;-70
2022/06/02 04:18:20;;;;;;;3.70;3.27;;;;;;;;;;5055313;28;20186;-70
2022/06/02 04:20:57;;;;;;;4.40;3.60;;;;;;;;;;5053255;28;20283;-71
2022/06/02 04:23:42;;;;;;;3.40;3.10;;;;;;;;;;5053223;28;20300;-71
2022/06/02 04:26:27;;;;;;;3.93;3.10;;;;;;;;;;5052410;28;20177;-71
2022/06/02 04:28:57;;;;;;;4.30;3.07;;;;;;;;;;5032568;28;20190;-71
2022/06/02 04:31:30;;;;;;;3.07;2.57;;;;;;;;;;5053485;28;20201;-71
2022/06/02 04:33:58;;;;;;;3.20;2.70;;;;;;;;;;5068352;28;20212;-71
2022/06/02 04:36:33;;;;;;;2.80;2.53;;;;;;;;;;5054472;28;20182;-71
2022/06/02 04:39:09;;;;;;;3.17;2.60;;;;;;;;;;5055350;28;20192;-71
2022/06/02 04:41:35;;;;;;;2.60;2.40;;;;;;;;;;5062726;28;20185;-71
2022/06/02 04:44:07;;;;;;;3.60;3.30;;;;;;;;;;5050165;28;20214;-72
2022/06/02 04:46:39;;;;;;;3.60;3.00;;;;;;;;;;5064955;28;20623;-71
2022/06/02 04:49:09;;;;;;;5.40;3.43;;;;;;;;;;5055336;28;20252;-71
2022/06/02 04:51:59;;;;;;;4.13;3.10;;;;;;;;;;5063116;28;20185;-71
2022/06/02 04:54:30;;;;;;;3.80;3.40;;;;;;;;;;5032451;28;20229;-73
2022/06/02 04:57:19;;;;;;;4.80;3.63;;;;;;;;;;5060862;28;20181;-73
2022/06/02 04:59:56;;;;;;;9.23;3.93;;;;;;;;;;5038869;28;20212;-72
2022/06/02 05:02:26;;;;;;;4.63;4.03;;;;;;;;;;5054972;28;20255;-74
2022/06/02 05:05:11;;;;;;;4.27;3.83;;;;;;;;;;5059051;28;20678;-73
2022/06/02 05:07:56;;;;;;;4.87;4.30;;;;;;;;;;5056008;28;20634;-74
2022/06/02 05:10:29;;;;;;;4.40;4.00;;;;;;;;;;5056978;28;20670;-74
2022/06/02 05:12:56;;;;;;;5.53;3.83;;;;;;;;;;5060553;28;20237;-72
2022/06/02 05:15:42;;;;;;;6.27;4.20;;;;;;;;;;5063244;28;20213;-72
2022/06/02 05:18:27;;;;;;;5.20;4.63;;;;;;;;;;5055887;28;20188;-74
2022/06/02 05:20:56;;;;;;;6.60;4.50;;;;;;;;;;5059687;28;20717;-72
2022/06/02 05:23:28;;;;;;;4.60;4.20;;;;;;;;;;5057686;28;20269;-75
2022/06/02 05:25:54;;;;;;;4.97;4.20;;;;;;;;;;5043904;28;20185;-72
2022/06/02 05:28:30;;;;;;;4.27;3.87;;;;;;;;;;5056284;28;20186;-74
2022/06/02 05:31:08;;;;;;;4.57;3.80;;;;;;;;;;5055169;28;20176;-75
2022/06/02 05:33:45;;;;;;;4.67;3.93;;;;;;;;;;5041183;28;20221;-72
2022/06/02 05:36:34;;;;;;;9.47;3.63;;;;;;;;;;5071607;28;20192;-73
2022/06/02 05:39:10;;;;;;;3.93;3.50;;;;;;;;;;5064311;28;20595;-72
2022/06/02 05:41:39;;;;;;;4.00;3.60;;;;;;;;;;5038358;28;20181;-73
2022/06/02 05:44:28;;;;;;;3.63;3.33;;;;;;;;;;5072003;28;20216;-73
2022/06/02 05:47:13;;;;;;;5.60;3.17;;;;;;;;;;5076036;28;20612;-75
2022/06/02 05:49:51;;;;;;;5.07;3.17;;;;;;;;;;5073653;28;20208;-76
2022/06/02 05:52:23;;;;;;;3.37;3.07;;;;;;;;;;5076879;28;20181;-77
2022/06/02 05:54:58;;;;;;;5.37;2.93;;;;;;;;;;5053743;28;20212;-74
2022/06/02 05:57:35;;;;;;;4.40;3.30;;;;;;;;;;5078117;28;21633;-75
2022/06/02 06:00:06;;;;;;;3.97;3.57;;;;;;;;;;5074710;28;20181;-74
2022/06/02 06:02:38;;;;;;;4.87;4.17;;;;;;;;;;5075714;28;20173;-74
2022/06/02 06:05:16;;;;;;;5.93;4.03;;;;;;;;;;5077542;28;20224;-74
2022/06/02 06:07:42;;;;;;;4.97;4.30;;;;;;;;;;5076733;28;20223;-74
2022/06/02 06:10:15;;;;;;;6.77;4.27;;;;;;;;;;5058936;28;20338;-75
2022/06/02 06:12:53;;;;;;;4.40;3.50;;;;;;;;;;5077246;28;20192;-74
2022/06/02 06:15:26;;;;;;;5.37;4.03;;;;;;;;;;5076140;28;20208;-74
2022/06/02 06:18:02;;;;;;;5.63;3.73;;;;;;;;;;5074791;28;20181;-74
2022/06/02 06:20:39;;;;;;;6.00;3.60;;;;;;;;;;5061665;28;20831;-74
2022/06/02 06:23:13;;;;;;;3.70;3.40;;;;;;;;;;5069484;28;20540;-74
2022/06/02 06:26:00;;;;;;;4.63;4.20;;;;;;;;;;5074009;28;20185;-74
2022/06/02 06:28:28;;;;;;;4.60;3.83;;;;;;;;;;5072901;28;20249;-74
2022/06/02 06:30:55;;;;;;;5.70;4.13;;;;;;;;;;5072213;28;20201;-74
2022/06/02 06:33:22;;;;;;;4.27;3.87;;;;;;;;;;5073899;28;20209;-74
2022/06/02 06:35:57;;;;;;;5.67;4.03;;;;;;;;;;5068538;28;20185;-74
2022/06/02 06:38:29;;;;;;;5.00;4.50;;;;;;;;;;5077395;28;20772;-74
2022/06/02 06:40:58;;;;;;;4.50;4.10;;;;;;;;;;5071793;28;20266;-74
2022/06/02 06:43:31;;;;;;;5.87;4.13;;;;;;;;;;5062976;28;20217;-74
2022/06/02 06:46:16;;;;;;;5.60;4.60;;;;;;;;;;5068951;28;20182;-74
2022/06/02 06:48:46;;;;;;;4.97;3.80;;;;;;;;;;5052590;28;20173;-74
2022/06/02 06:51:21;;;;;;;6.83;4.13;;;;;;;;;;5078685;28;20787;-74
2022/06/02 06:54:00;;;;;;;6.60;3.80;;;;;;;;;;5061700;28;20661;-74
2022/06/02 06:56:37;;;;;;;6.03;4.80;;;;;;;;;;5067572;28;20181;-74
2022/06/02 06:59:18;;;;;;;5.00;3.83;;;;;;;;;;5059801;28;20544;-74
2022/06/02 07:02:01;;;;;;;5.70;3.83;;;;;;;;;;5055242;28;20533;-74
2022/06/02 07:04:48;;;;;;;4.20;3.30;;;;;;;;;;5080317;28;20284;-74
2022/06/02 07:07:26;;;;;;;3.47;3.10;;;;;;;;;;5070471;28;20708;-74
2022/06/02 07:10:14;;;;;;;3.33;3.00;;;;;;;;;;5064385;28;20183;-75
2022/06/02 07:12:58;;;;;;;4.97;2.87;;;;;;;;;;5062584;28;20181;-74
2022/06/02 07:15:44;;;;;;;4.93;2.70;;;;;;;;;;5068878;28;20688;-74
2022/06/02 07:18:29;;;;;;;2.50;2.30;;;;;;;;;;5065219;28;20231;-74
2022/06/02 07:21:19;;;;;;;2.73;2.50;;;;;;;;;;5057787;28;20256;-74
2022/06/02 07:23:57;;;;;;;2.70;2.50;;;;;;;;;;5052540;28;20866;-74
2022/06/02 07:26:26;;;;;;;9.40;2.43;;;;;;;;;;5068803;28;20212;-74
2022/06/02 07:28:58;;;;;;;3.03;2.33;;;;;;;;;;5048646;28;20295;-75
2022/06/02 07:31:39;;;;;;;4.63;2.20;;;;;;;;;;5066597;28;20663;-75
2022/06/02 07:34:22;;;;;;;2.50;2.30;;;;;;;;;;5053200;28;20216;-75
2022/06/02 07:37:05;;;;;;;3.07;2.20;;;;;;;;;;5053707;28;20273;-74
2022/06/02 07:39:53;;;;;;;1.90;1.80;;;;;;;;;;5065859;28;20696;-75
2022/06/02 07:42:35;;;;;;;2.73;2.20;;;;;;;;;;5068371;28;20177;-75
2022/06/02 07:45:16;;;;;;;2.27;1.83;;;;;;;;;;5069653;28;20209;-75
2022/06/02 07:47:45;;;;;;;2.97;1.80;;;;;;;;;;5066496;28;20209;-75
2022/06/02 07:50:18;;;;;;;2.63;1.90;;;;;;;;;;5059323;28;20276;-75
2022/06/02 07:52:44;;;;;;;3.50;1.87;;;;;;;;;;5064298;28;20752;-75
2022/06/02 07:55:10;;;;;;;2.17;1.90;;;;;;;;;;5069734;28;20249;-75
2022/06/02 07:57:56;;;;;;;2.43;2.10;;;;;;;;;;5069588;28;20269;-75
2022/06/02 08:00:23;;;;;;;2.93;2.40;;;;;;;;;;5065851;28;20190;-75
2022/06/02 08:03:02;;;;;;;3.20;1.90;;;;;;;;;;5059177;28;20226;-75
2022/06/02 08:05:34;;;;;;;4.97;2.10;;;;;;;;;;5069857;28;20189;-74
2022/06/02 08:08:04;;;;;;;4.00;2.10;;;;;;;;;;5072516;28;20278;-75
2022/06/02 08:10:35;;;;;;;2.60;2.10;;;;;;;;;;5070578;28;20192;-76
2022/06/02 08:13:15;;;;;;;2.27;1.70;;;;;;;;;;5059146;28;20184;-74
2022/06/02 08:15:47;;;;;;;2.37;1.80;;;;;;;;;;5071456;28;20188;-77
2022/06/02 08:18:13;;;;;;;3.00;2.47;;;;;;;;;;5070223;28;21787;-76
2022/06/02 08:20:47;;;;;;;2.67;2.20;;;;;;;;;;5064921;28;20177;-76
2022/06/02 08:23:16;;;;;;;2.00;1.90;;;;;;;;;;5073568;28;20684;-75
2022/06/02 08:25:57;;;;;;;2.37;1.97;;;;;;;;;;5071497;28;20200;-75
2022/06/02 08:28:42;;;;;;;1.93;1.60;;;;;;;;;;5064304;28;20528;-75
2022/06/02 08:31:30;;;;;;;1.67;1.57;;;;;;;;;;5065544;28;20264;-74
2022/06/02 08:34:17;;;;;;;2.03;1.80;;;;;;;;;;5055101;28;20235;-74
2022/06/02 08:37:03;;;;;;;2.20;1.70;;;;;;;;;;5041693;28;20189;-74
2022/06/02 08:39:42;;;;;;;1.93;1.67;;;;;;;;;;5068655;28;20230;-74
2022/06/02 08:42:27;;;;;;;1.93;1.73;;;;;;;;;;5064550;28;20181;-74
2022/06/02 08:45:12;;;;;;;2.57;1.60;;;;;;;;;;5054192;28;20697;-74
2022/06/02 08:48:04;;;;;;;1.67;1.57;;;;;;;;;;5052015;28;20286;-74
2022/06/02 08:50:40;;;;;;;2.53;1.60;;;;;;;;;;5071318;28;20189;-74
2022/06/02 08:53:07;;;;;;;2.97;1.80;;;;;;;;;;5072177;28;20188;-74
2022/06/02 08:55:49;;;;;;;2.17;1.90;;;;;;;;;;5079852;28;20205;-74
2022/06/02 08:58:27;;;;;;;5.10;1.70;;;;;;;;;;5052280;28;20213;-74
2022/06/02 09:01:02;;;;;;;1.63;1.50;;;;;;;;;;5072599;28;20482;-74
2022/06/02 09:03:47;;;;;;;2.00;1.40;;;;;;;;;;5071795;28;20216;-74
2022/06/02 09:06:25;;;;;;;3.00;1.70;;;;;;;;;;5070168;28;20181;-74
2022/06/02 09:09:10;;;;;;;1.47;1.37;;;;;;;;;;5057490;28;20547;-74
2022/06/02 09:12:03;;;;;;;2.30;1.63;;;;;;;;;;5059020;28;20178;-74
2022/06/02 09:14:30;;;;;;;1.70;1.60;;;;;;;;;;5044326;28;20227;-74
2022/06/02 09:17:06;;;;;;;3.23;2.00;;;;;;;;;;5082608;28;20263;-74
2022/06/02 09:19:38;;;;;;;1.80;1.70;;;;;;;;;;5083389;28;20196;-74
2022/06/02 09:22:10;;;;;;;2.10;1.57;;;;;;;;;;5065044;28;20177;-74
2022/06/02 09:24:40;;;;;;;3.97;1.90;;;;;;;;;;5073003;28;20283;-73
2022/06/02 09:27:26;;;;;;;1.80;1.70;;;;;;;;;;5070878;28;20192;-73
2022/06/02 09:30:04;;;;;;;1.97;1.53;;;;;;;;;;5047152;28;20233;-73
2022/06/02 09:32:36;;;;;;;1.97;1.37;;;;;;;;;;5067816;28;20208;-73
2022/06/02 09:35:11;;;;;;;2.10;1.63;;;;;;;;;;5063894;28;20216;-73
2022/06/02 09:37:56;;;;;;;1.90;1.50;;;;;;;;;;5072009;28;20208;-73
2022/06/02 09:40:32;;;;;;;3.87;1.40;;;;;;;;;;5070321;28;20185;-73
2022/06/02 09:42:58;;;;;;;2.10;1.40;;;;;;;;;;5067753;28;20728;-73
2022/06/02 09:45:43;;;;;;;4.23;1.47;;;;;;;;;;5060684;28;20248;-73
2022/06/02 09:48:16;;;;;;;1.57;1.40;;;;;;;;;;5053913;28;20857;-73
2022/06/02 09:50:46;;;;;;;1.93;1.50;;;;;;;;;;5059123;28;20275;-73
2022/06/02 09:53:25;;;;;;;1.63;1.30;;;;;;;;;;5065293;28;20370;-73
2022/06/02 09:55:54;;;;;;;1.50;1.40;;;;;;;;;;5057711;28;20184;-73
2022/06/02 09:58:45;;;;;;;2.23;1.40;;;;;;;;;;5058516;28;20274;-73
2022/06/02 10:01:12;;;;;;;1.40;1.30;;;;;;;;;;5058224;28;20204;-73
2022/06/02 10:03:56;;;;;;;2.60;1.40;;;;;;;;;;5063385;28;20197;-73
2022/06/02 10:06:41;;;;;;;1.67;1.37;;;;;;;;;;5060941;28;20574;-73
2022/06/02 10:09:21;;;;;;;2.10;1.37;;;;;;;;;;5057837;28;20189;-73
2022/06/02 10:14:55;;;;;;;1.33;1.23;;;;;;;;;;5060128;28;20217;-73
2022/06/02 10:17:40;;;;;;;1.67;1.57;;;;;;;;;;5063840;28;20553;-73
2022/06/02 10:20:18;;;;;;;4.03;1.40;;;;;;;;;;5060252;28;20224;-74
2022/06/02 10:22:56;;;;;;;1.47;1.37;;;;;;;;;;5066994;28;20181;-73
2022/06/02 10:25:47;;;;;;;1.50;1.40;;;;;;;;;;5069761;28;20877;-73
2022/06/02 10:28:43;;;;;;;2.93;1.60;;;;;;;;;;5072468;28;20180;-73
2022/06/02 10:31:12;;;;;;;2.40;1.40;;;;;;;;;;5075595;28;20193;-73
2022/06/02 10:33:57;;;;;;;2.03;1.60;;;;;;;;;;5062154;28;20241;-74
2022/06/02 10:36:35;;;;;;;2.30;1.20;;;;;;;;;;5069134;28;20182;-74
2022/06/02 10:39:10;;;;;;;1.40;1.30;;;;;;;;;;5068162;28;20239;-74
2022/06/02 10:41:40;;;;;;;2.37;1.40;;;;;;;;;;5059791;28;20256;-74
2022/06/02 10:44:36;;;;;;;1.50;1.40;;;;;;;;;;5053894;28;20239;-74
2022/06/02 10:47:08;;;;;;;1.60;1.40;;;;;;;;;;5059515;28;20188;-73
2022/06/02 10:49:59;;;;;;;1.90;1.30;;;;;;;;;;5062614;28;20187;-74
2022/06/02 10:52:29;;;;;;;1.90;1.70;;;;;;;;;;5057901;28;20193;-74
2022/06/02 10:55:15;;;;;;;2.13;1.30;;;;;;;;;;5056774;28;20226;-74
2022/06/02 10:57:42;;;;;;;2.30;1.37;;;;;;;;;;5057740;28;20178;-73
2022/06/02 11:00:31;;;;;;;6.60;1.30;;;;;;;;;;5054142;28;20658;-73
2022/06/02 11:03:07;;;;;;;1.70;1.50;;;;;;;;;;5053253;28;20198;-74
2022/06/02 11:05:52;;;;;;;1.37;1.27;;;;;;;;;;5061682;28;20189;-74
2022/06/02 11:08:37;;;;;;;2.20;1.60;;;;;;;;;;5059444;28;20189;-75
2022/06/02 11:11:22;;;;;;;1.63;1.50;;;;;;;;;;5048693;28;20271;-74
2022/06/02 11:14:09;;;;;;;3.93;1.60;;;;;;;;;;5056547;28;20205;-74
2022/06/02 11:16:47;;;;;;;1.73;1.63;;;;;;;;;;5055850;28;20185;-74
2022/06/02 11:19:52;;;;;;;2.40;1.37;;;;;;;;;;5054745;28;20185;-77
2022/06/02 11:22:21;;;;;;;2.27;1.80;;;;;;;;;;5034649;28;20221;-74
2022/06/02 11:24:52;;;;;;;3.10;1.53;;;;;;;;;;5040152;28;20463;-80
2022/06/02 11:27:37;;;;;;;2.27;1.40;;;;;;;;;;5048101;28;20596;-79
2022/06/02 11:30:19;;;;;;;2.27;1.20;;;;;;;;;;5032297;28;20189;-80
2022/06/02 11:32:52;;;;;;;1.33;1.30;;;;;;;;;;5069701;28;20197;-76
2022/06/02 11:35:18;;;;;;;2.27;1.40;;;;;;;;;;5063990;28;20284;-76
2022/06/02 11:37:45;;;;;;;1.83;1.53;;;;;;;;;;5059625;28;20201;-76
2022/06/02 11:40:24;;;;;;;2.27;1.60;;;;;;;;;;5056687;28;20575;-76
2022/06/02 11:43:12;;;;;;;1.50;1.40;;;;;;;;;;5056209;28;20266;-75
2022/06/02 11:45:56;;;;;;;1.97;1.70;;;;;;;;;;5060923;28;20227;-76
2022/06/02 11:48:41;;;;;;;2.80;1.57;;;;;;;;;;5059200;28;20173;-75
2022/06/02 11:51:25;;;;;;;2.23;1.70;;;;;;;;;;5059480;28;20185;-75
2022/06/02 11:53:57;;;;;;;1.63;1.53;;;;;;;;;;5064660;28;20201;-75
2022/06/02 11:56:38;;;;;;;1.67;1.57;;;;;;;;;;5061379;28;20562;-76
2022/06/02 11:59:10;;;;;;;1.73;1.40;;;;;;;;;;5061061;28;20189;-76
2022/06/02 12:01:37;;;;;;;2.80;1.60;;;;;;;;;;5064569;28;20188;-76
2022/06/02 12:04:06;;;;;;;1.80;1.50;;;;;;;;;;5060776;28;20247;-76
2022/06/02 12:06:42;;;;;;;2.03;1.40;;;;;;;;;;5061108;28;20211;-76
2022/06/02 12:09:18;;;;;;;1.63;1.40;;;;;;;;;;5058130;28;20192;-76
2022/06/02 12:12:10;;;;;;;2.87;1.50;;;;;;;;;;5040862;28;20615;-76
2022/06/02 12:14:56;;;;;;;2.83;1.47;;;;;;;;;;5056088;28;20228;-75
2022/06/02 12:17:22;;;;;;;2.40;1.33;;;;;;;;;;5032204;28;20178;-73
2022/06/02 12:19:54;;;;;;;1.50;1.40;;;;;;;;;;5059476;28;20280;-74
2022/06/02 12:22:47;;;;;;;2.60;1.50;;;;;;;;;;5043946;28;20505;-75
2022/06/02 12:25:21;;;;;;;1.40;1.30;;;;;;;;;;5064748;28;20209;-73
2022/06/02 12:27:48;;;;;;;1.80;1.47;;;;;;;;;;5055846;28;20220;-74
2022/06/02 12:30:24;;;;;;;1.70;1.30;;;;;;;;;;5062921;28;20198;-73
2022/06/02 12:33:11;;;;;;;1.57;1.33;;;;;;;;;;5057802;28;20197;-73
2022/06/02 12:35:56;;;;;;;1.70;1.60;;;;;;;;;;5053409;28;20252;-74
2022/06/02 12:38:41;;;;;;;3.77;1.70;;;;;;;;;;5062552;28;20231;-76
2022/06/02 12:41:27;;;;;;;2.83;1.57;;;;;;;;;;5057339;28;20187;-77
2022/06/02 12:43:59;;;;;;;2.23;1.67;;;;;;;;;;5044575;28;20591;-76
2022/06/02 12:46:44;;;;;;;1.93;1.80;;;;;;;;;;5060565;28;20208;-77
2022/06/02 12:49:20;;;;;;;1.93;1.60;;;;;;;;;;5064214;28;20181;-77
2022/06/02 12:51:46;;;;;;;2.87;1.60;;;;;;;;;;5061925;28;20222;-77
2022/06/02 12:54:31;;;;;;;1.83;1.50;;;;;;;;;;5064237;28;20270;-75
2022/06/02 12:57:09;;;;;;;1.83;1.40;;;;;;;;;;5064812;28;20212;-75
2022/06/02 12:59:53;;;;;;;1.70;1.60;;;;;;;;;;5067726;28;20201;-75
2022/06/02 13:02:25;;;;;;;1.60;1.50;;;;;;;;;;5063650;28;20181;-73
2022/06/02 13:04:55;;;;;;;1.80;1.70;;;;;;;;;;5066971;28;20669;-75
2022/06/02 13:07:47;;;;;;;1.70;1.60;;;;;;;;;;5066217;28;20557;-75
2022/06/02 13:10:16;;;;;;;2.97;1.60;;;;;;;;;;5067946;28;20177;-75
2022/06/02 13:13:02;;;;;;;2.80;1.60;;;;;;;;;;5061155;28;20223;-76
2022/06/02 13:15:47;;;;;;;1.67;1.57;;;;;;;;;;5068401;28;20210;-76
2022/06/02 13:18:29;;;;;;;2.87;1.60;;;;;;;;;;5064253;28;20262;-75
2022/06/02 13:21:14;;;;;;;1.87;1.50;;;;;;;;;;5057633;28;20187;-75
2022/06/02 13:23:59;;;;;;;1.63;1.50;;;;;;;;;;5064096;28;20292;-75
2022/06/02 13:26:26;;;;;;;1.60;1.50;;;;;;;;;;5064981;28;20222;-75
2022/06/02 13:29:19;;;;;;;1.60;1.50;;;;;;;;;;5062437;28;20268;-76
2022/06/02 13:31:48;;;;;;;1.50;1.40;;;;;;;;;;5058105;28;20185;-75
2022/06/02 13:34:23;;;;;;;3.03;1.37;;;;;;;;;;5043571;28;20222;-75
2022/06/02 13:37:08;;;;;;;2.63;1.63;;;;;;;;;;5057826;28;20178;-76
2022/06/02 13:39:50;;;;;;;1.60;1.50;;;;;;;;;;5065538;28;20212;-76
2022/06/02 13:42:25;;;;;;;1.53;1.43;;;;;;;;;;5055704;28;20176;-75
2022/06/02 13:44:57;;;;;;;1.50;1.40;;;;;;;;;;5060011;28;20207;-75
2022/06/02 13:47:29;;;;;;;2.83;1.50;;;;;;;;;;5063722;28;20271;-75
2022/06/02 13:50:02;;;;;;;4.67;1.40;;;;;;;;;;5062811;28;20261;-75
2022/06/02 13:53:01;;;;;;;1.60;1.50;;;;;;;;;;5057572;28;20185;-75
2022/06/02 13:58:36;;;;;;;1.70;1.50;;;;;;;;;;5061236;28;20218;-76
2022/06/02 14:01:02;;;;;;;1.50;1.40;;;;;;;;;;5069735;28;20178;-75
2022/06/02 14:03:48;;;;;;;2.03;1.40;;;;;;;;;;5061995;28;20562;-75
2022/06/02 14:06:16;;;;;;;1.47;1.30;;;;;;;;;;5066680;28;20211;-75
2022/06/02 14:08:53;;;;;;;2.23;1.80;;;;;;;;;;5044987;28;20222;-75
2022/06/02 14:11:38;;;;;;;1.50;1.33;;;;;;;;;;5067747;28;20200;-75
2022/06/02 14:14:14;;;;;;;2.00;1.80;;;;;;;;;;5061284;28;20205;-76
2022/06/02 14:16:59;;;;;;;1.77;1.67;;;;;;;;;;5068057;28;20627;-76
2022/06/02 14:19:32;;;;;;;2.00;1.60;;;;;;;;;;5066851;28;20540;-76
2022/06/02 14:22:21;;;;;;;1.60;1.50;;;;;;;;;;5063061;28;20302;-76
2022/06/02 14:24:48;;;;;;;3.03;1.50;;;;;;;;;;5066665;28;20246;-76
2022/06/02 14:27:18;;;;;;;2.50;1.57;;;;;;;;;;5063921;28;20235;-75
2022/06/02 14:29:49;;;;;;;1.67;1.30;;;;;;;;;;5058282;28;20182;-76
2022/06/02 14:32:15;;;;;;;3.00;1.40;;;;;;;;;;5056315;28;20213;-76
2022/06/02 14:35:01;;;;;;;1.43;1.30;;;;;;;;;;5062124;28;20802;-76
2022/06/02 14:37:49;;;;;;;3.33;1.50;;;;;;;;;;5071050;28;20170;-76
2022/06/02 14:40:39;;;;;;;1.30;1.20;;;;;;;;;;5061207;28;20255;-76
2022/06/02 14:43:21;;;;;;;2.07;1.40;;;;;;;;;;5061012;28;20194;-76
2022/06/02 14:46:05;;;;;;;1.80;1.20;;;;;;;;;;5058832;28;20673;-76
2022/06/02 14:48:50;;;;;;;1.63;1.20;;;;;;;;;;5053607;28;20329;-75
2022/06/02 14:51:18;;;;;;;1.43;1.30;;;;;;;;;;5054564;28;20790;-75
2022/06/02 14:53:53;;;;;;;1.20;1.10;;;;;;;;;;5053472;28;20205;-75
2022/06/02 14:56:37;;;;;;;1.40;1.30;;;;;;;;;;5060837;28;20211;-75
2022/06/02 14:59:15;;;;;;;2.70;1.10;;;;;;;;;;5066958;28;20185;-75
2022/06/02 15:01:42;;;;;;;1.30;1.20;;;;;;;;;;5054678;28;20220;-75
2022/06/02 15:04:15;;;;;;;1.40;1.30;;;;;;;;;;5058042;28;20577;-73
2022/06/02 15:07:01;;;;;;;1.30;1.20;;;;;;;;;;5060666;28;20187;-74
2022/06/02 15:09:40;;;;;;;3.33;1.20;;;;;;;;;;5066934;28;20208;-74
2022/06/02 15:12:09;;;;;;;1.30;1.20;;;;;;;;;;5057247;28;20197;-74
2022/06/02 15:14:42;;;;;;;3.50;1.20;;;;;;;;;;5054711;28;20226;-73
2022/06/02 15:17:17;;;;;;;1.60;1.23;;;;;;;;;;5060887;28;20745;-74
2022/06/02 15:19:50;;;;;;;1.40;1.30;;;;;;;;;;5059065;28;20275;-73
2022/06/02 15:22:35;;;;;;;1.60;1.50;;;;;;;;;;5064076;28;20190;-73
2022/06/02 15:25:24;;;;;;;2.47;1.40;;;;;;;;;;5049578;28;20211;-74
2022/06/02 15:27:51;;;;;;;1.97;1.20;;;;;;;;;;5050573;28;20197;-73
2022/06/02 15:30:35;;;;;;;2.00;1.30;;;;;;;;;;5062945;28;20300;-73
2022/06/02 15:33:31;;;;;;;1.57;1.47;;;;;;;;;;5065040;28;20824;-73
2022/06/02 15:36:00;;;;;;;1.67;1.37;;;;;;;;;;5053562;28;20201;-73
2022/06/02 15:38:32;;;;;;;1.33;1.23;;;;;;;;;;5064185;28;20181;-73
2022/06/02 15:41:11;;;;;;;1.80;1.53;;;;;;;;;;5062300;28;20223;-73
2022/06/02 15:43:55;;;;;;;2.87;1.30;;;;;;;;;;5061478;28;20197;-73
2022/06/02 15:46:31;;;;;;;3.67;1.50;;;;;;;;;;5057987;28;20715;-72
2022/06/02 15:49:04;;;;;;;1.20;1.10;;;;;;;;;;5044456;28;20561;-73
2022/06/02 15:51:33;;;;;;;2.30;1.30;;;;;;;;;;5047459;28;20215;-73
2022/06/02 15:54:18;;;;;;;1.60;1.50;;;;;;;;;;5064064;28;20596;-73